CheckWX is a tool to help pilots better visualize weather data.  It is not intended as a substitute for an official pre-flight weather briefing.

10:02:02 UTC

ESPE METAR
Vidsel Air Base Airport
Vidsel, Sweden
Current

42 mins ago

ESPE 310920Z AUTO 28005KT 260V330 9999 NCD 21/08 Q1031
Observed
May-31 @ 09:20 UTC
Wind
  • 280° at 5 KTS
Visibility
10,000+ meters
Flight Rules
VFR
Cloud Levels
  • Clear skies
Temperature
21°C / 70°F
Dewpoint
C / 46°F
Humidity
43%
Altimeter
30.44" Hg
Pressure
1030.92 hPa
Previous

1 hour ago

ESPE 310850Z AUTO 29007KT 240V320 9999 NCD 20/08 Q1032
Observed
May-31 @ 08:50 UTC
Wind
  • 290° at 7 KTS
Visibility
10,000+ meters
Flight Rules
VFR
Cloud Levels
  • Clear skies
Temperature
20°C / 68°F
Dewpoint
C / 46°F
Humidity
46%
Altimeter
30.47" Hg
Pressure
1031.92 hPa
Previous

2 hours ago

ESPE 310820Z AUTO VRB03KT 9999 NCD 20/08 Q1032
Observed
May-31 @ 08:20 UTC
Wind
  • Variable at 3 KTS
Visibility
10,000+ meters
Flight Rules
VFR
Cloud Levels
  • Clear skies
Temperature
20°C / 68°F
Dewpoint
C / 46°F
Humidity
46%
Altimeter
30.47" Hg
Pressure
1031.92 hPa